Samarkand, Uzbekistan
Current Conditions -  °F | °C
As of 2:30 AM on Tuesday 21 Oct 2014 (Local Time) from UTSS Reporting Station
Broken Clouds Broken Clouds  
Wind Chill: 57°   Ceiling: 10000
Heat Index: 57°   Visibility: 6mi
Dew Point: 48°   Wind: 7mph
Humidity: 72%   Direction: 290°WNW
Pressure: 30.18"   Gusts: NA
Location:  39.66°N, 66.95°E
Report Text: UTSS 202130Z 29003MPS 9999 BKN100 14/09 Q1022 R88/CLRD70 NOSIG
Loading
Personal Weather Stations






























Interactive Weather Map
Tropical Storm Tracking
New forecast layout! Learn more

10-Day Weather Forecast

Advertisements
Track Severe Weather on mobile